Pagina principale
METAR-TAF:

METAR-TAF

Aeroporti :

Aeroporto di Magadino

Locarno, Svizzera

latitudine: 46-09-55N, longitudine: 8-52-40E, altezza: 198 m

Osservazione

Il bollettino è stato emesso 23 minuti fa, alle 05:20 UTC
Vento 1 kt da direzioni variabili
Temperature 4°C
Umidità 100%
Pressione 1010 hPa
Visibilità: 4800 m
Nuvoloso ad un'altezza di 3500 ft
rovesci di pioggia, foschia

METAR: LSZL 180520Z AUTO VRB01KT 4800NDV -SHRA BR BKN035 04/04 Q1010 RMK

Ora: 06:43 (05:43 UTC)

Previsione

Il bollettino è stato emesso 18 minuti fa, alle 05:25 UTC
Previsione valida dal 18 alle 06 UTC al 18 alle 15 UTC
Vento 3 kt da direzioni variabili
Visibilità: 4800 m
Nuvoloso ad un'altezza di 3500 ft
pioggia debole, foschia
Evoluzione graduale
dal 18 alle 08 UTC al 18 alle 11 UTC
Visibilità: 9000 m

TAF: LSZL 180525Z 1806/1815 VRB03KT 4800 -RA BR BKN035 BECMG 1808/1811 9000 NSW

Osservazioni e previsioni meteorologiche di più di 4000 aeroporti (messaggi METAR e TAF).

Le stazioni disponibili sono rappresentate dai dischi gialli e rossi sulla carta.

Puntare il mouse per vedere il nome della stazione.

Clicca sopra per visualizzare le osservazioni e previsioni meteorologiche.

Per cambiare la mappa : fare clic sui pulsanti verdi con una croce nera per ingrandire, il pulsante verde con un trattino per diminuire, o sulla freccia verde per le mappe adiacenti.


METAR-TAF: